Time;durP1;ratioP1;P1;durP2;ratioP2;P2;SDS_P1;SDS_P2;PMS_P1;PMS_P2;Temp;Humidity;BMP_temperature;BMP_pressure;BME280_temperature;BME280_humidity;BME280_pressure;Samples;Min_cycle;Max_cycle;Signal;HPM_P1;HPM_P2
2024/04/24 00:00:20;;;;;;;6.00;4.63;;;0.20;99.90;;;;;;2244734;26;20279;-69
2024/04/24 00:01:21;;;;;;;6.10;4.50;;;0.30;99.90;;;;;;2236097;26;20344;-68
2024/04/24 00:02:21;;;;;;;5.63;4.40;;;0.20;99.90;;;;;;2232941;26;20311;-68
2024/04/24 00:03:22;;;;;;;3.50;3.17;;;0.20;99.90;;;;;;2229731;26;20260;-68
2024/04/24 00:04:26;;;;;;;5.87;4.50;;;0.30;99.90;;;;;;2238374;26;20276;-69
2024/04/24 00:05:26;;;;;;;7.25;4.25;;;0.20;99.90;;;;;;2244921;26;20269;-69
2024/04/24 00:06:27;;;;;;;5.83;4.47;;;0.20;99.90;;;;;;2246494;26;20296;-69
2024/04/24 00:07:28;;;;;;;5.67;4.70;;;0.20;99.90;;;;;;2243441;26;20349;-69
2024/04/24 00:08:29;;;;;;;6.88;4.53;;;0.30;99.90;;;;;;2229908;26;20591;-70
2024/04/24 00:09:29;;;;;;;6.17;4.60;;;0.10;99.90;;;;;;2244730;26;20268;-66
2024/04/24 00:10:30;;;;;;;4.70;4.20;;;0.20;99.90;;;;;;2245782;26;20264;-70
2024/04/24 00:11:31;;;;;;;5.07;4.17;;;0.00;99.90;;;;;;2244849;26;20294;-69
2024/04/24 00:12:32;;;;;;;4.73;3.60;;;0.10;99.90;;;;;;2236953;26;20269;-68
2024/04/24 00:13:32;;;;;;;6.10;4.13;;;0.10;99.90;;;;;;2236651;26;20624;-69
2024/04/24 00:14:33;;;;;;;6.07;4.53;;;0.10;99.90;;;;;;2244794;26;20264;-70
2024/04/24 00:15:34;;;;;;;4.73;3.83;;;0.10;99.90;;;;;;2229492;26;20276;-69
2024/04/24 00:16:35;;;;;;;6.05;4.10;;;0.00;99.90;;;;;;2244693;26;20316;-68
2024/04/24 00:17:36;;;;;;;6.70;4.43;;;0.00;99.90;;;;;;2251721;26;20306;-67
2024/04/24 00:18:36;;;;;;;6.60;4.50;;;0.00;99.90;;;;;;2234035;26;20261;-67
2024/04/24 00:19:38;;;;;;;5.03;3.13;;;0.00;99.90;;;;;;2236171;26;20788;-68
2024/04/24 00:20:38;;;;;;;6.78;3.95;;;0.00;99.90;;;;;;2251457;26;20325;-67
2024/04/24 00:21:39;;;;;;;5.70;4.00;;;0.00;99.90;;;;;;2243668;26;20261;-67
2024/04/24 00:22:40;;;;;;;4.70;3.83;;;0.10;99.90;;;;;;2229560;26;20324;-68
2024/04/24 00:23:40;;;;;;;4.97;4.17;;;0.00;99.90;;;;;;2229855;26;20270;-67
2024/04/24 00:24:41;;;;;;;4.43;4.03;;;0.00;99.90;;;;;;2234538;26;20311;-70
2024/04/24 00:25:42;;;;;;;6.73;4.90;;;0.00;99.90;;;;;;2247388;26;20294;-67
2024/04/24 00:26:42;;;;;;;6.77;4.40;;;0.10;99.90;;;;;;2245401;26;20368;-68
2024/04/24 00:27:43;;;;;;;5.07;4.37;;;0.00;99.90;;;;;;2251024;26;20268;-68
2024/04/24 00:28:44;;;;;;;6.37;4.67;;;0.10;99.90;;;;;;2251042;26;20362;-67
2024/04/24 00:29:44;;;;;;;5.87;4.43;;;0.10;99.90;;;;;;2248856;26;20306;-67
2024/04/24 00:30:45;;;;;;;5.17;3.90;;;0.20;99.90;;;;;;2248912;26;20279;-68
2024/04/24 00:31:46;;;;;;;4.67;3.80;;;0.10;99.90;;;;;;2250672;26;20298;-68
2024/04/24 00:32:46;;;;;;;4.30;3.90;;;0.00;99.90;;;;;;2244520;26;20275;-67
2024/04/24 00:33:47;;;;;;;5.53;3.93;;;-0.10;99.90;;;;;;2262905;26;20325;-68
2024/04/24 00:34:48;;;;;;;5.67;4.10;;;0.00;99.90;;;;;;2247761;26;20257;-68
2024/04/24 00:35:48;;;;;;;6.97;4.97;;;0.00;99.90;;;;;;2236347;26;20280;-67
2024/04/24 00:36:49;;;;;;;5.57;3.90;;;-0.20;99.90;;;;;;2228707;26;21044;-67
2024/04/24 00:37:50;;;;;;;9.43;4.50;;;-0.20;99.90;;;;;;2227959;26;20265;-68
2024/04/24 00:38:50;;;;;;;5.27;4.50;;;-0.10;99.90;;;;;;2236350;26;20323;-67
2024/04/24 00:39:51;;;;;;;4.50;3.67;;;-0.10;99.90;;;;;;2251219;26;20369;-67
2024/04/24 00:40:52;;;;;;;5.03;4.53;;;0.00;99.90;;;;;;2228408;26;20788;-67
2024/04/24 00:41:52;;;;;;;5.07;4.30;;;-0.10;99.90;;;;;;2221732;26;20305;-68
2024/04/24 00:42:53;;;;;;;6.87;4.80;;;0.00;99.90;;;;;;2230610;26;20267;-68
2024/04/24 00:43:54;;;;;;;5.03;4.27;;;0.10;99.90;;;;;;2234389;26;20269;-68
2024/04/24 00:44:54;;;;;;;7.10;4.23;;;0.10;99.90;;;;;;2236368;26;20268;-68
2024/04/24 00:45:58;;;;;;;7.43;4.60;;;0.10;99.90;;;;;;2251547;26;20263;-70
2024/04/24 00:47:01;;;;;;;5.28;4.15;;;0.20;99.90;;;;;;2245665;26;20269;-70
2024/04/24 00:48:03;;;;;;;5.88;4.57;;;0.20;99.90;;;;;;2234628;26;20300;-70
2024/04/24 00:49:05;;;;;;;5.90;4.20;;;0.20;99.90;;;;;;2248274;26;20576;-68
2024/04/24 00:50:12;;;;;;;5.90;4.15;;;0.10;99.90;;;;;;2247822;26;20341;-72
2024/04/24 00:51:14;;;;;;;6.78;4.10;;;0.00;99.90;;;;;;2227656;26;20268;-70
2024/04/24 00:52:15;;;;;;;8.25;4.85;;;-0.10;99.90;;;;;;2237446;26;20231;-70
2024/04/24 00:53:16;;;;;;;5.95;4.85;;;-0.10;99.90;;;;;;2236229;26;20284;-71
2024/04/24 00:54:17;;;;;;;5.63;4.57;;;0.00;99.90;;;;;;2237415;26;20272;-71
2024/04/24 00:55:18;;;;;;;5.73;4.47;;;0.00;99.90;;;;;;2230206;26;20366;-69
2024/04/24 00:56:19;;;;;;;6.73;4.30;;;0.00;99.90;;;;;;2215917;26;20332;-70
2024/04/24 00:57:20;;;;;;;5.22;4.05;;;0.10;99.90;;;;;;2206910;26;20250;-70
2024/04/24 00:58:22;;;;;;;4.83;4.23;;;0.10;99.90;;;;;;2216444;26;20333;-70
2024/04/24 00:59:23;;;;;;;5.85;4.25;;;0.00;99.90;;;;;;2222541;26;20262;-72
2024/04/24 01:00:25;;;;;;;6.38;4.43;;;0.10;99.90;;;;;;2236585;26;20265;-71
2024/04/24 01:01:26;;;;;;;6.45;4.97;;;0.10;99.90;;;;;;2234725;26;20265;-71
2024/04/24 01:02:27;;;;;;;6.15;4.68;;;0.00;99.90;;;;;;2249670;26;20828;-71
2024/04/24 01:03:28;;;;;;;4.57;4.00;;;0.00;99.90;;;;;;2234964;26;20269;-71
2024/04/24 01:04:29;;;;;;;5.45;4.30;;;0.00;99.90;;;;;;2232295;26;20265;-71
2024/04/24 01:05:30;;;;;;;5.00;4.07;;;0.00;99.90;;;;;;2244604;26;20260;-71
2024/04/24 01:06:30;;;;;;;6.00;4.70;;;0.00;99.90;;;;;;2235742;26;20268;-71
2024/04/24 01:07:31;;;;;;;5.50;3.93;;;-0.10;99.90;;;;;;2228198;26;20789;-72
2024/04/24 01:08:32;;;;;;;6.27;4.77;;;0.00;99.90;;;;;;2246439;26;20673;-72
2024/04/24 01:09:33;;;;;;;6.70;5.03;;;0.00;99.90;;;;;;2249881;26;20310;-71
2024/04/24 01:10:33;;;;;;;5.67;4.30;;;0.10;99.90;;;;;;2234988;26;20281;-71
2024/04/24 01:11:35;;;;;;;4.80;3.87;;;0.00;99.90;;;;;;2234369;26;20422;-71
2024/04/24 01:12:36;;;;;;;5.20;4.18;;;0.10;99.90;;;;;;2251234;26;20348;-71
2024/04/24 01:13:36;;;;;;;6.30;5.00;;;0.10;99.90;;;;;;2249892;26;20371;-72
2024/04/24 01:14:37;;;;;;;5.90;4.77;;;0.10;99.90;;;;;;2234708;26;20330;-72
2024/04/24 01:15:41;;;;;;;6.23;4.83;;;0.10;99.90;;;;;;2236410;26;20370;-71
2024/04/24 01:16:43;;;;;;;5.90;4.40;;;0.10;99.90;;;;;;2233726;26;20269;-71
2024/04/24 01:17:50;;;;;;;7.45;4.43;;;0.20;99.90;;;;;;2234794;26;20310;-72
2024/04/24 01:19:02;;;;;;;7.05;5.18;;;0.10;99.90;;;;;;2231797;26;20281;-71
2024/04/24 01:20:07;;;;;;;6.10;4.15;;;0.10;99.90;;;;;;2240809;26;20256;-72
2024/04/24 01:21:10;;;;;;;5.13;4.28;;;0.10;99.90;;;;;;2229583;26;20269;-72
2024/04/24 01:22:52;;;;;;;6.20;4.10;;;0.10;99.90;;;;;;2229358;26;20309;-72
2024/04/24 01:24:09;;;;;;;5.38;4.03;;;0.10;99.90;;;;;;2227685;26;20261;-72
2024/04/24 01:25:46;;;;;;;6.10;4.50;;;0.00;99.90;;;;;;2216266;26;20281;-72
2024/04/24 01:26:50;;;;;;;7.88;4.38;;;0.00;99.90;;;;;;2174178;26;20277;-72
2024/04/24 01:27:51;;;;;;;7.30;4.63;;;0.00;99.90;;;;;;2235194;26;20352;-73
2024/04/24 01:28:53;;;;;;;6.50;4.68;;;-0.10;99.90;;;;;;2235691;26;20343;-71
2024/04/24 01:29:53;;;;;;;5.32;4.10;;;0.00;99.90;;;;;;2234684;26;20272;-71
2024/04/24 01:30:54;;;;;;;6.93;4.57;;;-0.20;99.90;;;;;;2225941;26;20793;-71
2024/04/24 01:31:55;;;;;;;5.67;3.73;;;-0.20;99.90;;;;;;2227473;26;20269;-72
2024/04/24 01:32:55;;;;;;;6.90;5.20;;;-0.10;99.90;;;;;;2231543;26;20269;-72
2024/04/24 01:33:56;;;;;;;7.30;4.77;;;-0.10;99.90;;;;;;2223524;26;20819;-71
2024/04/24 01:34:57;;;;;;;6.93;5.00;;;-0.30;99.90;;;;;;2245998;26;20280;-72
2024/04/24 01:35:58;;;;;;;5.50;4.40;;;-0.20;99.90;;;;;;2247500;26;20264;-71
2024/04/24 01:36:58;;;;;;;7.75;4.60;;;-0.20;99.90;;;;;;2228109;26;20930;-72
2024/04/24 01:37:59;;;;;;;8.37;5.03;;;-0.20;99.90;;;;;;2230232;26;20269;-73
2024/04/24 01:39:00;;;;;;;5.77;4.07;;;-0.10;99.90;;;;;;2241651;26;20279;-72
2024/04/24 01:40:00;;;;;;;6.73;5.27;;;-0.20;99.90;;;;;;2241943;26;20264;-72
2024/04/24 01:41:01;;;;;;;5.97;4.50;;;-0.20;99.90;;;;;;2225126;26;20820;-72
2024/04/24 01:42:02;;;;;;;7.10;4.50;;;-0.20;99.90;;;;;;2242823;26;20300;-71
2024/04/24 01:43:03;;;;;;;6.70;5.07;;;-0.20;99.90;;;;;;2225688;26;20284;-72
2024/04/24 01:44:03;;;;;;;6.00;4.43;;;-0.20;99.90;;;;;;2230122;26;20263;-72
2024/04/24 01:45:04;;;;;;;7.53;5.40;;;-0.30;99.90;;;;;;2249873;26;20711;-72
2024/04/24 01:46:05;;;;;;;5.68;4.85;;;-0.30;99.90;;;;;;2243911;26;20729;-72
2024/04/24 01:47:06;;;;;;;6.67;4.87;;;-0.20;99.90;;;;;;2248722;26;20275;-72
2024/04/24 01:48:07;;;;;;;7.63;5.30;;;-0.20;99.90;;;;;;2241241;26;20274;-72
2024/04/24 01:49:07;;;;;;;7.13;4.63;;;-0.20;99.90;;;;;;2229508;26;20271;-72
2024/04/24 01:50:08;;;;;;;8.00;5.53;;;-0.30;99.90;;;;;;2242580;26;20794;-72
2024/04/24 01:51:09;;;;;;;5.43;4.53;;;-0.30;99.90;;;;;;2242795;26;20282;-72
2024/04/24 01:52:10;;;;;;;6.80;4.80;;;-0.40;99.90;;;;;;2230946;26;20271;-72
2024/04/24 01:53:11;;;;;;;5.93;4.63;;;-0.40;99.90;;;;;;2233687;26;20308;-72
2024/04/24 01:54:11;;;;;;;6.20;4.50;;;-0.40;99.90;;;;;;2235505;26;20233;-72
2024/04/24 01:55:12;;;;;;;5.87;4.47;;;-0.50;99.90;;;;;;2234793;26;20229;-72
2024/04/24 01:56:13;;;;;;;8.23;5.43;;;-0.50;99.90;;;;;;2220591;26;20718;-71
2024/04/24 01:57:14;;;;;;;5.50;4.43;;;-0.50;99.90;;;;;;2218218;26;20579;-72
2024/04/24 01:58:14;;;;;;;6.57;5.03;;;-0.60;99.90;;;;;;2220958;26;20242;-72
2024/04/24 01:59:15;;;;;;;6.30;4.40;;;-0.50;99.90;;;;;;2214096;26;20340;-72
2024/04/24 02:00:16;;;;;;;6.80;4.50;;;-0.50;99.90;;;;;;2230240;26;20753;-72
2024/04/24 02:01:16;;;;;;;6.93;4.70;;;-0.50;99.90;;;;;;2234706;26;20236;-72
2024/04/24 02:02:17;;;;;;;5.73;4.00;;;-0.50;99.90;;;;;;2249141;26;20375;-73
2024/04/24 02:03:18;;;;;;;6.43;4.50;;;-0.40;99.90;;;;;;2242594;26;20237;-72
2024/04/24 02:04:18;;;;;;;5.37;4.20;;;-0.40;99.90;;;;;;2242929;26;20737;-72
2024/04/24 02:05:19;;;;;;;8.70;5.13;;;-0.30;99.90;;;;;;2249616;26;20228;-73
2024/04/24 02:06:20;;;;;;;6.97;4.10;;;-0.40;99.90;;;;;;2228716;26;20246;-71
2024/04/24 02:07:20;;;;;;;8.07;4.70;;;-0.40;99.90;;;;;;2225843;26;20253;-71
2024/04/24 02:08:21;;;;;;;5.00;3.97;;;-0.40;99.90;;;;;;2245184;26;20887;-73
2024/04/24 02:09:22;;;;;;;7.20;4.43;;;-0.40;99.90;;;;;;2249926;26;20307;-72
2024/04/24 02:10:22;;;;;;;5.07;4.00;;;-0.50;99.90;;;;;;2234667;26;20264;-73
2024/04/24 02:11:23;;;;;;;6.30;4.67;;;-0.50;99.90;;;;;;2240983;26;20340;-72
2024/04/24 02:12:24;;;;;;;6.27;4.73;;;-0.50;99.90;;;;;;2243626;26;20264;-72
2024/04/24 02:13:24;;;;;;;6.83;4.97;;;-0.50;99.90;;;;;;2244633;26;20367;-72
2024/04/24 02:14:25;;;;;;;6.57;4.63;;;-0.40;99.90;;;;;;2244365;26;20771;-73
2024/04/24 02:15:26;;;;;;;6.87;4.63;;;-0.40;99.90;;;;;;2241560;26;20269;-72
2024/04/24 02:16:27;;;;;;;5.80;4.63;;;-0.40;99.90;;;;;;2233348;26;20265;-73
2024/04/24 02:17:27;;;;;;;7.13;5.10;;;-0.50;99.90;;;;;;2249722;26;20263;-73
2024/04/24 02:18:28;;;;;;;7.13;5.10;;;-0.40;99.90;;;;;;2244375;26;20325;-73
2024/04/24 02:19:29;;;;;;;5.97;5.13;;;-0.40;99.90;;;;;;2243251;26;20291;-72
2024/04/24 02:20:29;;;;;;;5.37;4.67;;;-0.40;99.90;;;;;;2229701;26;20300;-73
2024/04/24 02:21:30;;;;;;;5.97;4.70;;;-0.30;99.90;;;;;;2244610;26;20265;-72
2024/04/24 02:22:31;;;;;;;6.13;4.67;;;-0.30;99.90;;;;;;2249330;26;20264;-72
2024/04/24 02:23:34;;;;;;;5.53;4.23;;;-0.40;99.90;;;;;;2215395;26;20266;-73
2024/04/24 02:25:54;;;;;;;5.65;3.70;;;-0.50;99.90;;;;;;2247630;26;20255;-70
2024/04/24 02:26:55;;;;;;;6.27;4.17;;;-0.60;99.90;;;;;;2251545;26;20323;-70
2024/04/24 02:27:55;;;;;;;5.30;4.33;;;-0.60;99.90;;;;;;2243562;26;20733;-73
2024/04/24 02:28:56;;;;;;;6.13;4.70;;;-0.60;99.90;;;;;;2251388;26;20268;-71
2024/04/24 02:29:57;;;;;;;5.77;4.83;;;-0.50;99.90;;;;;;2244117;26;20276;-70
2024/04/24 02:30:57;;;;;;;7.03;4.87;;;-0.60;99.90;;;;;;2237450;26;20783;-72
2024/04/24 02:31:58;;;;;;;7.10;3.60;;;-0.60;99.90;;;;;;2248363;26;20263;-71
2024/04/24 02:32:59;;;;;;;8.40;4.63;;;-0.60;99.90;;;;;;2239335;26;20311;-70
2024/04/24 02:34:00;;;;;;;6.90;4.87;;;-0.50;99.90;;;;;;2243639;26;20312;-72
2024/04/24 02:35:00;;;;;;;6.47;4.60;;;-0.40;99.90;;;;;;2246915;26;20263;-70
2024/04/24 02:36:02;;;;;;;7.67;4.90;;;-0.40;99.90;;;;;;2250066;26;20240;-72
2024/04/24 02:37:04;;;;;;;7.60;4.97;;;-0.50;99.90;;;;;;2251754;26;20752;-71
2024/04/24 02:38:07;;;;;;;6.45;4.95;;;-0.50;99.90;;;;;;2240487;26;20240;-71
2024/04/24 02:39:08;;;;;;;5.20;4.28;;;-0.40;99.90;;;;;;2233149;26;20241;-70
2024/04/24 02:40:09;;;;;;;5.83;4.23;;;-0.40;99.90;;;;;;2251981;26;20279;-72
2024/04/24 02:41:10;;;;;;;5.72;3.70;;;-0.40;99.90;;;;;;2238937;26;20988;-71
2024/04/24 02:42:11;;;;;;;6.23;4.40;;;-0.40;99.90;;;;;;2230433;26;20234;-71
2024/04/24 02:43:11;;;;;;;6.67;4.53;;;-0.40;99.90;;;;;;2244516;26;20924;-71
2024/04/24 02:44:12;;;;;;;7.80;4.97;;;-0.60;99.90;;;;;;2260301;26;20681;-71
2024/04/24 02:45:13;;;;;;;6.67;4.33;;;-0.50;99.90;;;;;;2244847;26;20249;-71
2024/04/24 02:46:13;;;;;;;5.73;4.63;;;-0.50;99.90;;;;;;2233272;26;20319;-71
2024/04/24 02:47:14;;;;;;;5.17;4.23;;;-0.50;99.90;;;;;;2236759;26;20282;-73
2024/04/24 02:48:15;;;;;;;5.37;4.40;;;-0.50;99.90;;;;;;2249444;26;20225;-73
2024/04/24 02:49:15;;;;;;;6.23;4.53;;;-0.40;99.90;;;;;;2240721;26;20881;-72
2024/04/24 02:50:16;;;;;;;5.67;4.03;;;-0.40;99.90;;;;;;2229656;26;20230;-73
2024/04/24 02:51:17;;;;;;;7.00;5.10;;;-0.40;99.90;;;;;;2230331;26;20234;-72
2024/04/24 02:52:17;;;;;;;5.07;4.50;;;-0.30;99.90;;;;;;2235455;26;20241;-71
2024/04/24 02:53:18;;;;;;;5.47;4.57;;;-0.30;99.90;;;;;;2237914;26;20263;-71
2024/04/24 02:54:19;;;;;;;9.43;5.53;;;-0.20;99.90;;;;;;2235189;26;20310;-71
2024/04/24 02:55:20;;;;;;;8.67;4.17;;;-0.30;99.90;;;;;;2236526;26;20356;-70
2024/04/24 02:56:20;;;;;;;7.57;5.10;;;-0.40;99.90;;;;;;2251500;26;20380;-71
2024/04/24 02:57:21;;;;;;;6.63;4.47;;;-0.40;99.90;;;;;;2246694;26;20501;-71
2024/04/24 02:58:22;;;;;;;7.63;5.10;;;-0.30;99.90;;;;;;2250326;26;20267;-71
2024/04/24 02:59:23;;;;;;;5.53;4.47;;;-0.30;99.90;;;;;;2241502;26;20360;-71
2024/04/24 03:00:24;;;;;;;6.70;4.97;;;-0.20;99.90;;;;;;2221539;26;20265;-71
2024/04/24 03:01:24;;;;;;;6.60;5.07;;;-0.10;99.90;;;;;;2235639;26;20757;-71
2024/04/24 03:02:25;;;;;;;5.93;4.20;;;-0.10;99.90;;;;;;2244895;26;20261;-71
2024/04/24 03:03:26;;;;;;;5.90;5.03;;;0.00;99.90;;;;;;2244429;26;20263;-71
2024/04/24 03:04:27;;;;;;;6.00;4.70;;;0.00;99.90;;;;;;2243979;26;20271;-70
2024/04/24 03:05:29;;;;;;;7.10;4.63;;;0.00;99.90;;;;;;2249756;26;20267;-71
2024/04/24 03:06:29;;;;;;;6.93;4.85;;;0.00;99.90;;;;;;2239150;26;20277;-72
2024/04/24 03:07:30;;;;;;;7.33;5.90;;;0.10;99.90;;;;;;2243974;26;20602;-72
2024/04/24 03:08:31;;;;;;;7.13;4.37;;;0.10;99.90;;;;;;2245508;26;20255;-72
2024/04/24 03:09:31;;;;;;;5.30;4.00;;;0.10;99.90;;;;;;2229589;26;20371;-71
2024/04/24 03:10:32;;;;;;;5.10;4.60;;;0.10;99.90;;;;;;2244408;26;20264;-72
2024/04/24 03:11:33;;;;;;;7.40;4.77;;;0.20;99.90;;;;;;2244433;26;20263;-72
2024/04/24 03:12:33;;;;;;;5.00;3.90;;;0.20;99.90;;;;;;2250303;26;20267;-72
2024/04/24 03:13:36;;;;;;;5.37;4.30;;;0.20;99.90;;;;;;2236068;26;20315;-72
2024/04/24 03:14:36;;;;;;;5.80;4.25;;;0.20;99.90;;;;;;2250430;26;20268;-72
2024/04/24 03:15:37;;;;;;;6.13;4.30;;;0.10;99.90;;;;;;2251182;26;20275;-71
2024/04/24 03:16:38;;;;;;;6.43;5.00;;;0.00;99.90;;;;;;2236344;26;20265;-71
2024/04/24 03:17:39;;;;;;;5.57;4.53;;;0.00;99.90;;;;;;2249851;26;20305;-72
2024/04/24 03:18:43;;;;;;;7.05;4.95;;;-0.10;99.90;;;;;;2241965;26;20620;-71
2024/04/24 03:19:43;;;;;;;7.45;4.78;;;-0.10;99.90;;;;;;2227801;26;20265;-72
2024/04/24 03:20:44;;;;;;;7.40;5.20;;;0.00;99.90;;;;;;2242906;26;20263;-72
2024/04/24 03:21:45;;;;;;;4.60;3.97;;;0.00;99.90;;;;;;2246708;26;20732;-72
2024/04/24 03:22:45;;;;;;;5.63;4.60;;;0.10;99.90;;;;;;2247073;26;20299;-72
2024/04/24 03:23:46;;;;;;;5.40;4.17;;;0.10;99.90;;;;;;2221443;26;20270;-71
2024/04/24 03:24:47;;;;;;;5.93;4.00;;;0.20;99.90;;;;;;2225977;26;20268;-72
2024/04/24 03:25:47;;;;;;;6.93;4.67;;;0.30;99.90;;;;;;2251623;26;20354;-72
2024/04/24 03:26:48;;;;;;;4.13;3.73;;;0.40;99.90;;;;;;2251221;26;20310;-71
2024/04/24 03:27:49;;;;;;;6.10;4.77;;;0.40;99.90;;;;;;2244606;26;20614;-72
2024/04/24 03:28:49;;;;;;;6.20;4.87;;;0.30;99.90;;;;;;2252176;26;20361;-72
2024/04/24 03:29:50;;;;;;;7.30;4.93;;;0.40;99.90;;;;;;2251547;26;20373;-72
2024/04/24 03:30:51;;;;;;;6.97;4.47;;;0.40;99.90;;;;;;2234297;26;20726;-72
2024/04/24 03:31:51;;;;;;;7.23;4.87;;;0.50;99.90;;;;;;2234607;26;20276;-72
2024/04/24 03:32:52;;;;;;;5.67;4.07;;;0.50;99.90;;;;;;2218098;26;20274;-71
2024/04/24 03:33:53;;;;;;;4.97;4.13;;;0.50;99.90;;;;;;2218480;26;20824;-72
2024/04/24 03:34:53;;;;;;;5.90;4.23;;;0.60;99.90;;;;;;2249004;26;20372;-72
2024/04/24 03:35:54;;;;;;;8.07;5.00;;;0.60;99.90;;;;;;2243089;26;20276;-72
2024/04/24 03:36:55;;;;;;;6.33;4.43;;;0.70;99.90;;;;;;2242139;26;20732;-73
2024/04/24 03:37:56;;;;;;;6.37;4.13;;;0.70;99.90;;;;;;2239821;26;20291;-72
2024/04/24 03:38:56;;;;;;;9.97;5.33;;;0.70;99.90;;;;;;2242805;26;20268;-72
2024/04/24 03:39:57;;;;;;;7.10;4.83;;;0.80;99.90;;;;;;2257206;26;20787;-72
2024/04/24 03:40:58;;;;;;;8.70;5.40;;;0.90;99.90;;;;;;2248499;26;20272;-71
2024/04/24 03:41:58;;;;;;;8.20;5.20;;;0.80;99.90;;;;;;2235720;26;20272;-72
2024/04/24 03:42:59;;;;;;;8.00;5.80;;;0.90;99.90;;;;;;2235192;26;20265;-73
2024/04/24 03:44:00;;;;;;;8.17;5.10;;;0.90;99.80;;;;;;2244499;26;20265;-72
2024/04/24 03:45:01;;;;;;;7.23;5.27;;;0.90;99.90;;;;;;2249668;26;20279;-72
2024/04/24 03:46:02;;;;;;;7.67;6.00;;;0.90;99.90;;;;;;2243106;26;20241;-72
2024/04/24 03:47:02;;;;;;;9.73;6.40;;;0.90;99.30;;;;;;2239398;26;20233;-73
2024/04/24 03:48:04;;;;;;;7.30;5.83;;;0.80;99.90;;;;;;2242708;26;20638;-71
2024/04/24 03:49:05;;;;;;;8.27;5.25;;;0.80;99.90;;;;;;2234817;26;20253;-74
2024/04/24 03:50:06;;;;;;;6.47;4.90;;;0.80;99.90;;;;;;2235574;26;20233;-73
2024/04/24 03:51:07;;;;;;;7.95;5.30;;;0.90;99.90;;;;;;2247217;26;20986;-72
2024/04/24 03:52:07;;;;;;;10.53;4.87;;;0.90;99.90;;;;;;2241424;26;20288;-73
2024/04/24 03:53:08;;;;;;;7.00;5.37;;;0.90;99.90;;;;;;2243021;26;20233;-70
2024/04/24 03:54:09;;;;;;;6.17;5.50;;;0.90;99.90;;;;;;2243916;26;20268;-72
2024/04/24 03:55:10;;;;;;;7.77;4.67;;;1.00;99.90;;;;;;2243612;26;20232;-71
2024/04/24 03:56:10;;;;;;;7.43;5.07;;;1.10;99.90;;;;;;2243331;26;20237;-71
2024/04/24 03:57:11;;;;;;;6.20;4.80;;;1.10;99.90;;;;;;2243263;26;20230;-73
2024/04/24 03:58:12;;;;;;;7.25;5.60;;;1.20;99.90;;;;;;2248601;26;20317;-72
2024/04/24 03:59:13;;;;;;;7.90;4.73;;;1.10;99.90;;;;;;2243683;26;20321;-72
2024/04/24 04:00:14;;;;;;;6.10;4.70;;;1.10;99.90;;;;;;2240493;26;20237;-73
2024/04/24 04:01:15;;;;;;;6.07;4.17;;;1.20;99.90;;;;;;2239854;26;21272;-71
2024/04/24 04:02:15;;;;;;;5.77;4.10;;;1.10;99.90;;;;;;2223018;26;20234;-71
2024/04/24 04:03:16;;;;;;;6.17;4.70;;;1.10;99.90;;;;;;2240416;26;20342;-71
2024/04/24 04:04:17;;;;;;;6.27;5.00;;;1.20;99.70;;;;;;2243832;26;20272;-70
2024/04/24 04:05:17;;;;;;;7.63;5.17;;;1.20;99.80;;;;;;2244773;26;20234;-71
2024/04/24 04:06:18;;;;;;;8.30;5.83;;;1.10;99.90;;;;;;2229839;26;20733;-73
2024/04/24 04:07:19;;;;;;;8.00;5.27;;;1.20;99.90;;;;;;2220231;26;20628;-72
2024/04/24 04:08:22;;;;;;;6.40;4.87;;;1.30;99.90;;;;;;2242652;26;20272;-70
2024/04/24 04:09:23;;;;;;;6.20;4.70;;;1.30;99.90;;;;;;2241654;26;20265;-70
2024/04/24 04:10:24;;;;;;;6.07;4.67;;;1.20;99.90;;;;;;2242449;26;20265;-71
2024/04/24 04:11:24;;;;;;;7.47;4.95;;;1.30;99.60;;;;;;2228683;26;20297;-70
2024/04/24 04:12:25;;;;;;;6.50;5.03;;;1.30;99.40;;;;;;2250551;26;20678;-70
2024/04/24 04:13:26;;;;;;;7.80;5.77;;;1.30;99.60;;;;;;2248732;26;20286;-73
2024/04/24 04:14:26;;;;;;;7.77;5.63;;;1.40;99.20;;;;;;2236692;26;20296;-72
2024/04/24 04:15:27;;;;;;;6.73;5.43;;;1.40;99.40;;;;;;2235618;26;20630;-72
2024/04/24 04:16:28;;;;;;;7.97;5.47;;;1.50;99.00;;;;;;2235984;26;20278;-71
2024/04/24 04:17:29;;;;;;;6.47;4.97;;;1.50;99.10;;;;;;2235771;26;20357;-71
2024/04/24 04:18:30;;;;;;;6.17;4.60;;;1.50;99.30;;;;;;2246042;26;20338;-73
2024/04/24 04:19:31;;;;;;;5.93;4.70;;;1.50;99.40;;;;;;2244186;26;20925;-71
2024/04/24 04:20:32;;;;;;;10.50;6.20;;;1.50;99.30;;;;;;2244685;26;20331;-71
2024/04/24 04:21:32;;;;;;;6.40;4.80;;;1.60;99.30;;;;;;2238342;26;20300;-71
2024/04/24 04:22:33;;;;;;;7.57;6.17;;;1.60;99.30;;;;;;2244405;26;20900;-71
2024/04/24 04:23:34;;;;;;;6.97;6.00;;;1.60;99.30;;;;;;2242181;26;20265;-71
2024/04/24 04:24:35;;;;;;;6.13;5.13;;;1.70;98.80;;;;;;2243714;26;20279;-70
2024/04/24 04:25:35;;;;;;;8.77;6.57;;;1.70;98.80;;;;;;2245275;26;20276;-72
2024/04/24 04:26:36;;;;;;;9.47;6.43;;;1.70;98.90;;;;;;2245783;26;20269;-70
2024/04/24 04:27:38;;;;;;;7.10;5.23;;;1.70;98.80;;;;;;2246829;26;20373;-70
2024/04/24 04:28:39;;;;;;;7.85;6.05;;;1.70;98.30;;;;;;2249920;26;20265;-71
2024/04/24 04:29:40;;;;;;;8.73;6.13;;;1.60;98.70;;;;;;2235629;26;20265;-71
2024/04/24 04:30:40;;;;;;;9.60;6.83;;;1.70;98.70;;;;;;2245226;26;20348;-71
2024/04/24 04:31:41;;;;;;;9.87;6.27;;;1.60;98.40;;;;;;2244046;26;20270;-71
2024/04/24 04:32:42;;;;;;;7.77;5.83;;;1.50;98.80;;;;;;2244779;26;20268;-71
2024/04/24 04:33:45;;;;;;;9.00;6.93;;;1.50;99.30;;;;;;2244434;26;20914;-71
2024/04/24 04:34:46;;;;;;;8.15;6.57;;;1.50;99.40;;;;;;2247830;26;20270;-71
2024/04/24 04:35:47;;;;;;;8.48;5.88;;;1.50;99.40;;;;;;2242073;26;20263;-71
2024/04/24 04:36:48;;;;;;;7.53;5.90;;;1.50;99.60;;;;;;2244653;26;20273;-71
2024/04/24 04:37:48;;;;;;;11.20;6.07;;;1.50;99.70;;;;;;2248481;26;20270;-71
2024/04/24 04:38:49;;;;;;;7.80;5.90;;;1.60;99.70;;;;;;2231730;26;20270;-71
2024/04/24 04:39:50;;;;;;;8.50;5.50;;;1.60;99.70;;;;;;2220418;26;20269;-72
2024/04/24 04:40:50;;;;;;;10.37;5.50;;;1.60;99.60;;;;;;2233189;26;20723;-72
2024/04/24 04:41:51;;;;;;;8.40;5.90;;;1.70;99.70;;;;;;2214516;26;20267;-72
2024/04/24 04:42:52;;;;;;;6.50;5.80;;;1.80;99.00;;;;;;2215380;26;20344;-73
2024/04/24 04:43:54;;;;;;;9.40;6.73;;;1.70;99.30;;;;;;2231327;26;20271;-72
2024/04/24 04:44:57;;;;;;;10.48;6.63;;;1.60;99.60;;;;;;2248737;26;20356;-72
2024/04/24 04:45:57;;;;;;;9.63;6.60;;;1.70;99.20;;;;;;2241580;26;20736;-71
2024/04/24 04:46:58;;;;;;;9.33;6.37;;;1.70;99.30;;;;;;2241806;26;20330;-72
2024/04/24 04:47:59;;;;;;;8.33;5.60;;;1.70;99.00;;;;;;2248009;26;20278;-72
2024/04/24 04:48:59;;;;;;;8.27;6.47;;;1.70;98.80;;;;;;2235239;26;20356;-72
2024/04/24 04:50:00;;;;;;;6.80;5.47;;;1.70;99.00;;;;;;2235434;26;20795;-72
2024/04/24 04:51:02;;;;;;;8.60;6.70;;;1.70;99.00;;;;;;2244870;26;20702;-72
2024/04/24 04:52:03;;;;;;;8.13;6.50;;;1.60;99.40;;;;;;2241767;26;20245;-73
2024/04/24 04:53:03;;;;;;;8.13;6.47;;;1.70;99.20;;;;;;2223934;26;20275;-72
2024/04/24 04:54:04;;;;;;;7.87;6.17;;;1.60;99.20;;;;;;2220565;26;20808;-72
2024/04/24 04:55:05;;;;;;;8.17;6.40;;;1.70;99.40;;;;;;2243436;26;20624;-72
2024/04/24 04:56:06;;;;;;;12.13;6.60;;;1.70;99.20;;;;;;2247920;26;20352;-72
2024/04/24 04:57:07;;;;;;;8.13;5.10;;;1.70;99.20;;;;;;2213913;26;20794;-72
2024/04/24 04:58:08;;;;;;;8.07;5.23;;;1.70;99.30;;;;;;2225660;26;20235;-72
2024/04/24 04:59:08;;;;;;;6.30;5.00;;;1.70;99.70;;;;;;2247097;26;20234;-70
2024/04/24 05:00:11;;;;;;;6.20;5.27;;;1.70;99.80;;;;;;2244547;26;20706;-71
2024/04/24 05:01:12;;;;;;;9.35;6.50;;;1.80;99.90;;;;;;2228302;26;20677;-70
2024/04/24 05:02:13;;;;;;;7.22;5.93;;;1.80;99.40;;;;;;2234407;26;20297;-70
2024/04/24 05:03:13;;;;;;;8.77;5.60;;;1.90;99.00;;;;;;2242142;26;20249;-70
2024/04/24 05:04:14;;;;;;;8.03;6.27;;;1.80;98.90;;;;;;2242767;26;20233;-69
2024/04/24 05:05:15;;;;;;;8.30;6.10;;;1.80;99.50;;;;;;2241233;26;20242;-70
2024/04/24 05:06:15;;;;;;;6.23;5.23;;;1.90;99.50;;;;;;2235595;26;20248;-70
2024/04/24 05:07:16;;;;;;;7.50;5.67;;;1.90;99.20;;;;;;2216388;26;20677;-70
2024/04/24 05:08:17;;;;;;;7.93;6.03;;;1.90;98.60;;;;;;2219176;26;20265;-70
2024/04/24 05:09:18;;;;;;;12.53;8.43;;;1.80;98.80;;;;;;2241451;26;20238;-73
2024/04/24 05:10:19;;;;;;;12.00;8.13;;;1.70;99.30;;;;;;2253722;26;20240;-71
2024/04/24 05:11:19;;;;;;;10.50;8.10;;;1.60;99.50;;;;;;2244495;26;20286;-69
2024/04/24 05:12:20;;;;;;;11.57;6.97;;;1.60;99.50;;;;;;2241876;26;20231;-68
2024/04/24 05:13:21;;;;;;;9.73;6.37;;;1.60;99.40;;;;;;2235706;26;20300;-69
2024/04/24 05:14:22;;;;;;;11.60;7.43;;;1.60;99.20;;;;;;2220375;26;20317;-69
2024/04/24 05:15:22;;;;;;;9.60;6.83;;;1.60;98.90;;;;;;2235537;26;21226;-69
2024/04/24 05:16:23;;;;;;;7.97;6.73;;;1.60;99.40;;;;;;2235340;26;20740;-69
2024/04/24 05:17:24;;;;;;;9.30;6.80;;;1.50;99.50;;;;;;2229109;26;20270;-69
2024/04/24 05:18:24;;;;;;;10.77;6.57;;;1.50;99.80;;;;;;2210998;26;20262;-68
2024/04/24 05:19:25;;;;;;;8.20;6.40;;;1.50;99.80;;;;;;2221272;26;20735;-69
2024/04/24 05:20:26;;;;;;;7.77;6.30;;;1.60;99.60;;;;;;2236247;26;20262;-69
2024/04/24 05:21:26;;;;;;;8.47;5.73;;;1.60;99.90;;;;;;2222050;26;20387;-68
2024/04/24 05:22:36;;;;;;;7.50;5.60;;;1.70;99.10;;;;;;2229089;26;20267;-69